createdAt,value
2022-12-22T00:00:27.669Z,0.90
2022-12-22T00:03:15.932Z,1.00
2022-12-22T00:06:04.584Z,1.00
2022-12-22T00:08:52.714Z,0.75
2022-12-22T00:11:48.057Z,2.17
2022-12-22T00:14:36.828Z,1.60
2022-12-22T00:17:35.331Z,1.10
2022-12-22T00:20:28.920Z,1.10
2022-12-22T00:23:17.335Z,1.02
2022-12-22T00:26:12.862Z,0.85
2022-12-22T00:29:01.281Z,0.93
2022-12-22T00:31:50.805Z,0.88
2022-12-22T00:34:46.556Z,1.30
2022-12-22T00:37:35.818Z,0.88
2022-12-22T00:40:56.915Z,1.10
2022-12-22T00:43:45.353Z,1.30
2022-12-22T00:46:38.711Z,1.13
2022-12-22T00:49:29.549Z,1.00
2022-12-22T00:52:21.976Z,1.15
2022-12-22T00:55:17.157Z,1.08
2022-12-22T00:58:07.800Z,1.40
2022-12-22T01:00:56.315Z,1.13
2022-12-22T01:03:44.754Z,1.20
2022-12-22T01:06:33.876Z,1.70
2022-12-22T01:09:23.991Z,1.60
2022-12-22T01:12:14.025Z,1.30
2022-12-22T01:15:03.423Z,1.00
2022-12-22T01:17:54.320Z,1.85
2022-12-22T01:20:44.681Z,1.00
2022-12-22T01:23:33.317Z,1.20
2022-12-22T01:26:21.666Z,1.25
2022-12-22T01:29:10.199Z,1.45
2022-12-22T01:32:00.599Z,1.27
2022-12-22T01:34:49.187Z,1.55
2022-12-22T01:37:37.719Z,1.52
2022-12-22T01:40:36.916Z,1.08
2022-12-22T01:43:42.313Z,1.23
2022-12-22T01:47:10.010Z,1.40
2022-12-22T01:50:17.987Z,1.80
2022-12-22T01:53:06.774Z,1.38
2022-12-22T01:55:56.425Z,1.50
2022-12-22T01:58:51.056Z,1.65
2022-12-22T02:01:44.995Z,1.50
2022-12-22T02:04:34.778Z,2.28
2022-12-22T02:07:47.629Z,1.30
2022-12-22T02:11:04.921Z,1.73
2022-12-22T02:16:33.395Z,1.15
2022-12-22T02:19:29.128Z,1.77
2022-12-22T02:22:55.812Z,1.80
2022-12-22T02:26:14.255Z,1.15
2022-12-22T02:29:03.047Z,1.00
2022-12-22T02:32:03.611Z,1.20
2022-12-22T02:35:01.924Z,2.15
2022-12-22T02:38:00.591Z,1.42
2022-12-22T02:41:30.825Z,1.33
2022-12-22T02:44:24.957Z,1.10
2022-12-22T02:47:23.237Z,1.20
2022-12-22T02:50:38.432Z,1.35
2022-12-22T02:53:29.176Z,1.40
2022-12-22T02:56:30.049Z,1.23
2022-12-22T02:59:18.764Z,1.75
2022-12-22T03:02:07.877Z,1.60
2022-12-22T03:04:57.634Z,1.38
2022-12-22T03:07:46.107Z,1.20
2022-12-22T03:10:36.481Z,1.52
2022-12-22T03:13:24.655Z,1.38
2022-12-22T03:16:13.197Z,0.90
2022-12-22T03:19:01.816Z,0.80
2022-12-22T03:21:53.113Z,0.80
2022-12-22T03:24:41.764Z,0.82
2022-12-22T03:27:14.713Z,0.82
2022-12-22T03:29:46.600Z,0.75
2022-12-22T03:32:17.335Z,1.20
2022-12-22T03:34:47.992Z,0.80
2022-12-22T03:37:18.694Z,1.00
2022-12-22T03:39:48.928Z,0.50
2022-12-22T03:42:38.000Z,0.68
2022-12-22T03:45:27.496Z,0.60
2022-12-22T03:53:25.134Z,0.40
2022-12-22T03:56:02.522Z,0.60
2022-12-22T03:58:36.543Z,0.60
2022-12-22T04:01:17.660Z,0.70
2022-12-22T04:03:49.199Z,1.02
2022-12-22T04:06:20.736Z,0.60
2022-12-22T04:08:51.156Z,0.70
2022-12-22T04:11:40.073Z,0.70
2022-12-22T04:14:10.860Z,0.50
2022-12-22T04:16:41.808Z,0.80
2022-12-22T04:21:56.278Z,0.40
2022-12-22T04:24:27.243Z,1.20
2022-12-22T04:26:58.078Z,0.82
2022-12-22T04:29:33.393Z,0.60
2022-12-22T04:32:03.849Z,0.50
2022-12-22T04:34:38.239Z,0.47
2022-12-22T04:37:16.810Z,0.50
2022-12-22T04:39:56.010Z,0.65
2022-12-22T04:42:26.356Z,0.68
2022-12-22T04:44:56.832Z,0.60
2022-12-22T04:47:27.204Z,0.60
2022-12-22T04:49:57.569Z,0.55
2022-12-22T04:52:28.441Z,1.08
2022-12-22T04:57:41.602Z,0.70
2022-12-22T05:00:15.838Z,1.30
2022-12-22T05:02:47.898Z,0.63
2022-12-22T05:05:19.012Z,1.08
2022-12-22T05:07:50.967Z,0.68
2022-12-22T05:10:21.871Z,1.10
2022-12-22T05:12:58.198Z,0.63
2022-12-22T05:18:02.844Z,0.80
2022-12-22T05:20:34.075Z,1.38
2022-12-22T05:23:04.695Z,1.00
2022-12-22T05:25:35.760Z,0.65
2022-12-22T05:28:07.005Z,0.60
2022-12-22T05:30:37.420Z,0.90
2022-12-22T05:33:08.152Z,0.60
2022-12-22T05:35:39.196Z,0.93
2022-12-22T05:38:09.846Z,1.10
2022-12-22T05:41:03.992Z,0.82
2022-12-22T05:44:00.941Z,0.60
2022-12-22T05:46:31.707Z,0.40
2022-12-22T05:49:06.471Z,1.38
2022-12-22T05:51:37.391Z,0.60
2022-12-22T05:54:08.187Z,0.70
2022-12-22T05:56:39.738Z,0.70
2022-12-22T05:59:09.941Z,0.80
2022-12-22T06:01:40.438Z,0.63
2022-12-22T06:04:11.414Z,0.60
2022-12-22T06:06:46.368Z,1.00
2022-12-22T06:09:17.038Z,0.95
2022-12-22T06:11:49.137Z,0.73
2022-12-22T06:14:23.111Z,0.60
2022-12-22T06:16:54.054Z,0.90
2022-12-22T06:19:24.760Z,0.80
2022-12-22T06:21:55.261Z,0.68
2022-12-22T06:24:25.544Z,0.70
2022-12-22T06:26:55.800Z,0.88
2022-12-22T06:29:29.189Z,1.00
2022-12-22T06:31:59.482Z,0.70
2022-12-22T06:34:29.709Z,0.88
2022-12-22T06:37:00.064Z,1.02
2022-12-22T06:39:30.867Z,0.80
2022-12-22T06:42:19.710Z,1.10
2022-12-22T06:44:52.705Z,0.77
2022-12-22T06:47:25.553Z,1.10
2022-12-22T06:49:56.006Z,0.98
2022-12-22T06:55:10.091Z,1.10
2022-12-22T06:57:40.389Z,0.70
2022-12-22T07:00:11.345Z,1.27
2022-12-22T07:02:42.427Z,1.05
2022-12-22T07:05:23.396Z,1.15
2022-12-22T07:08:07.591Z,1.42
2022-12-22T07:10:57.007Z,1.25
2022-12-22T07:13:36.052Z,0.80
2022-12-22T07:16:08.938Z,1.00
2022-12-22T07:18:42.599Z,1.48
2022-12-22T07:21:15.214Z,1.13
2022-12-22T07:23:45.562Z,0.93
2022-12-22T07:26:18.888Z,1.08
2022-12-22T07:28:50.662Z,1.20
2022-12-22T07:31:22.164Z,1.00
2022-12-22T07:33:52.607Z,1.35
2022-12-22T07:36:23.926Z,0.95
2022-12-22T07:38:55.649Z,1.20
2022-12-22T07:41:48.895Z,1.27
2022-12-22T07:44:19.723Z,0.93
2022-12-22T07:46:50.738Z,1.25
2022-12-22T07:49:39.560Z,0.93
2022-12-22T07:52:09.829Z,1.42
2022-12-22T07:54:42.300Z,1.30
2022-12-22T07:57:14.344Z,1.00
2022-12-22T07:59:45.728Z,1.20
2022-12-22T08:02:16.186Z,1.38
2022-12-22T08:04:46.632Z,0.77
2022-12-22T08:07:17.362Z,0.93
2022-12-22T08:09:47.797Z,1.38
2022-12-22T08:12:18.162Z,0.90
2022-12-22T08:14:48.643Z,1.10
2022-12-22T08:17:19.405Z,0.88
2022-12-22T08:19:51.628Z,1.25
2022-12-22T08:22:25.409Z,1.50
2022-12-22T08:24:56.834Z,0.98
2022-12-22T08:27:40.308Z,0.90
2022-12-22T08:30:11.896Z,1.30
2022-12-22T08:32:45.660Z,1.52
2022-12-22T08:35:16.768Z,1.30
2022-12-22T08:37:49.211Z,0.98
2022-12-22T08:40:27.927Z,1.00
2022-12-22T08:43:17.558Z,0.90
2022-12-22T08:46:00.070Z,1.08
2022-12-22T08:48:30.623Z,1.25
2022-12-22T08:51:01.122Z,1.00
2022-12-22T08:54:03.958Z,1.35
2022-12-22T08:56:22.027Z,1.00
2022-12-22T08:58:52.320Z,1.10
2022-12-22T09:01:24.547Z,1.50
2022-12-22T09:03:56.378Z,1.08
2022-12-22T09:06:29.798Z,1.45
2022-12-22T09:09:06.208Z,1.40
2022-12-22T09:11:36.915Z,1.08
2022-12-22T09:14:08.389Z,1.02
2022-12-22T09:16:39.872Z,0.98
2022-12-22T09:19:10.835Z,1.15
2022-12-22T09:21:41.650Z,1.10
2022-12-22T09:24:13.288Z,1.50
2022-12-22T09:26:44.341Z,1.20
2022-12-22T09:29:18.268Z,1.15
2022-12-22T09:31:49.559Z,1.30
2022-12-22T09:34:20.742Z,1.35
2022-12-22T09:36:51.195Z,1.70
2022-12-22T09:39:28.551Z,1.60
2022-12-22T09:42:01.591Z,1.70
2022-12-22T09:44:42.685Z,1.55
2022-12-22T09:47:26.226Z,1.85
2022-12-22T09:50:00.538Z,1.90
2022-12-22T09:52:48.523Z,2.40
2022-12-22T09:55:28.285Z,2.13
2022-12-22T09:57:59.891Z,1.95
2022-12-22T10:00:31.593Z,1.95
2022-12-22T10:03:26.711Z,2.20
2022-12-22T10:06:14.224Z,2.55
2022-12-22T10:08:45.355Z,2.20
2022-12-22T10:11:34.527Z,2.35
2022-12-22T10:14:24.738Z,1.73
2022-12-22T10:17:17.632Z,1.30
2022-12-22T10:19:49.290Z,1.63
2022-12-22T10:22:35.699Z,1.85
2022-12-22T10:25:09.543Z,2.10
2022-12-22T10:27:45.523Z,2.50
2022-12-22T10:30:27.752Z,2.00
2022-12-22T10:33:24.168Z,1.75
2022-12-22T10:35:58.347Z,1.60
2022-12-22T10:39:05.006Z,1.92
2022-12-22T10:41:50.321Z,2.90
2022-12-22T10:44:21.489Z,1.60
2022-12-22T10:46:54.463Z,2.60
2022-12-22T10:49:32.229Z,2.95
2022-12-22T10:52:14.893Z,1.92
2022-12-22T10:54:47.199Z,2.03
2022-12-22T10:57:18.805Z,1.70
2022-12-22T10:59:53.143Z,1.75
2022-12-22T11:05:13.805Z,1.40
2022-12-22T11:07:47.064Z,1.38
2022-12-22T11:10:25.963Z,1.60
2022-12-22T11:13:21.774Z,1.70
2022-12-22T11:16:19.868Z,1.60
2022-12-22T11:18:56.958Z,2.15
2022-12-22T11:22:15.039Z,1.60
2022-12-22T11:25:14.092Z,1.73
2022-12-22T11:28:11.390Z,1.90
2022-12-22T11:31:33.258Z,1.98
2022-12-22T11:34:25.127Z,2.53
2022-12-22T11:37:22.846Z,1.85
2022-12-22T11:40:12.157Z,2.20
2022-12-22T11:43:01.618Z,2.13
2022-12-22T11:45:43.670Z,1.75
2022-12-22T11:48:45.053Z,2.20
2022-12-22T11:51:32.299Z,1.65
2022-12-22T11:56:47.516Z,1.67
2022-12-22T11:59:43.770Z,1.83
2022-12-22T12:02:32.425Z,2.45
2022-12-22T12:05:41.765Z,2.00
2022-12-22T12:08:48.835Z,2.28
2022-12-22T12:11:50.940Z,1.98
2022-12-22T12:14:42.876Z,2.22
2022-12-22T12:17:45.820Z,2.10
2022-12-22T12:20:47.182Z,2.33
2022-12-22T12:23:48.852Z,2.35
2022-12-22T12:26:49.848Z,2.00
2022-12-22T12:30:37.388Z,1.90
2022-12-22T12:33:07.402Z,2.00
2022-12-22T12:35:57.565Z,2.15
2022-12-22T12:41:34.425Z,2.30
2022-12-22T12:44:09.690Z,2.90
2022-12-22T12:49:59.759Z,1.80
2022-12-22T12:52:43.397Z,1.80
2022-12-22T12:55:36.142Z,1.70
2022-12-22T12:58:19.514Z,1.98
2022-12-22T13:00:58.662Z,1.70
2022-12-22T13:04:01.885Z,1.88
2022-12-22T13:06:51.304Z,2.03
2022-12-22T13:12:41.958Z,1.70
2022-12-22T13:15:36.686Z,2.40
2022-12-22T13:18:32.659Z,1.60
2022-12-22T13:26:54.016Z,1.92
2022-12-22T13:29:53.904Z,2.20
2022-12-22T13:32:44.927Z,2.35
2022-12-22T13:35:47.758Z,2.05
2022-12-22T13:38:35.572Z,2.08
2022-12-22T13:44:40.683Z,2.33
2022-12-22T13:47:17.800Z,1.73
2022-12-22T13:52:38.735Z,1.90
2022-12-22T13:55:18.811Z,1.95
2022-12-22T13:57:53.272Z,2.08
2022-12-22T14:00:49.541Z,2.00
2022-12-22T14:03:50.269Z,2.25
2022-12-22T14:06:44.039Z,2.00
2022-12-22T14:09:14.910Z,1.85
2022-12-22T14:11:52.327Z,2.30
2022-12-22T14:14:44.476Z,2.15
2022-12-22T14:17:31.091Z,1.70
2022-12-22T14:20:14.649Z,1.55
2022-12-22T14:23:19.985Z,1.75
2022-12-22T14:25:52.407Z,1.80
2022-12-22T14:28:25.917Z,1.70
2022-12-22T14:31:00.847Z,1.55
2022-12-22T14:33:34.471Z,1.92
2022-12-22T14:36:28.955Z,1.75
2022-12-22T14:39:18.326Z,2.03
2022-12-22T14:41:54.601Z,2.15
2022-12-22T14:44:35.401Z,1.55
2022-12-22T14:47:18.347Z,2.00
2022-12-22T14:50:17.756Z,2.13
2022-12-22T14:52:53.207Z,3.10
2022-12-22T14:55:52.637Z,2.10
2022-12-22T14:58:37.094Z,2.33
2022-12-22T15:01:26.863Z,2.00
2022-12-22T15:04:06.246Z,2.50
2022-12-22T15:06:54.653Z,2.70
2022-12-22T15:10:04.218Z,2.75
2022-12-22T15:12:22.692Z,2.80
2022-12-22T15:14:54.707Z,2.40
2022-12-22T15:17:32.527Z,2.28
2022-12-22T15:20:03.460Z,2.13
2022-12-22T15:22:33.865Z,3.10
2022-12-22T15:25:04.192Z,3.28
2022-12-22T15:27:34.564Z,2.70
2022-12-22T15:30:05.332Z,3.40
2022-12-22T15:32:38.067Z,4.65
2022-12-22T15:35:21.610Z,4.25
2022-12-22T15:37:52.475Z,4.05
2022-12-22T15:40:25.260Z,3.63
2022-12-22T15:42:57.498Z,4.30
2022-12-22T15:45:28.587Z,4.05
2022-12-22T15:48:00.434Z,4.95
2022-12-22T15:50:38.795Z,4.65
2022-12-22T15:53:11.363Z,3.88
2022-12-22T15:55:47.902Z,3.80
2022-12-22T15:58:31.183Z,4.78
2022-12-22T16:01:01.513Z,3.67
2022-12-22T16:03:32.480Z,2.80
2022-12-22T16:06:07.976Z,2.60
2022-12-22T16:08:42.466Z,2.60
2022-12-22T16:11:12.878Z,2.30
2022-12-22T16:13:46.515Z,2.40
2022-12-22T16:16:16.869Z,3.35
2022-12-22T16:18:48.230Z,2.60
2022-12-22T16:21:27.451Z,2.25
2022-12-22T16:24:01.163Z,2.00
2022-12-22T16:26:31.815Z,1.90
2022-12-22T16:29:02.282Z,2.03
2022-12-22T16:31:33.070Z,1.92
2022-12-22T16:34:04.745Z,1.90
2022-12-22T16:36:35.490Z,1.95
2022-12-22T16:39:05.934Z,2.10
2022-12-22T16:41:36.529Z,1.40
2022-12-22T16:47:00.770Z,1.98
2022-12-22T16:49:31.473Z,1.83
2022-12-22T16:52:02.636Z,1.60
2022-12-22T16:54:34.547Z,1.98
2022-12-22T16:57:05.232Z,2.17
2022-12-22T16:59:39.624Z,2.28
2022-12-22T17:02:29.912Z,2.30
2022-12-22T17:05:03.471Z,2.17
2022-12-22T17:07:36.318Z,1.85
2022-12-22T17:10:07.325Z,1.50
2022-12-22T17:12:37.826Z,1.40
2022-12-22T17:15:08.577Z,1.27
2022-12-22T17:17:42.306Z,1.27
2022-12-22T17:20:25.920Z,1.65
2022-12-22T17:23:02.479Z,1.50
2022-12-22T17:25:37.320Z,1.35
2022-12-22T17:28:07.580Z,1.33
2022-12-22T17:30:42.188Z,1.30
2022-12-22T17:33:22.113Z,1.20
2022-12-22T17:35:53.629Z,1.23
2022-12-22T17:38:32.066Z,1.58
2022-12-22T17:41:05.269Z,1.70
2022-12-22T17:43:35.686Z,1.40
2022-12-22T17:46:06.228Z,1.90
2022-12-22T17:48:37.055Z,2.15
2022-12-22T17:51:07.513Z,2.10
2022-12-22T17:53:41.064Z,2.47
2022-12-22T17:56:21.534Z,1.67
2022-12-22T17:58:52.763Z,2.40
2022-12-22T18:01:28.428Z,2.25
2022-12-22T18:04:03.237Z,2.10
2022-12-22T18:06:37.550Z,2.10
2022-12-22T18:09:09.335Z,2.30
2022-12-22T18:11:45.631Z,2.53
2022-12-22T18:14:18.011Z,2.47
2022-12-22T18:16:48.842Z,3.00
2022-12-22T18:19:19.219Z,2.60
2022-12-22T18:21:49.704Z,2.47
2022-12-22T18:24:21.514Z,2.95
2022-12-22T18:26:51.739Z,2.80
2022-12-22T18:29:22.002Z,3.63
2022-12-22T18:31:52.459Z,3.05
2022-12-22T18:34:22.875Z,2.85
2022-12-22T18:36:53.247Z,2.88
2022-12-22T18:39:23.973Z,3.25
2022-12-22T18:41:55.993Z,2.65
2022-12-22T18:44:27.589Z,2.25
2022-12-22T18:46:58.484Z,2.63
2022-12-22T18:49:28.742Z,1.98
2022-12-22T18:52:07.128Z,2.60
2022-12-22T18:54:39.730Z,2.20
2022-12-22T18:57:17.753Z,2.67
2022-12-22T18:59:52.761Z,2.72
2022-12-22T19:02:30.732Z,2.78
2022-12-22T19:05:01.110Z,2.67
2022-12-22T19:07:31.690Z,2.55
2022-12-22T19:10:02.304Z,2.88
2022-12-22T19:12:32.693Z,3.40
2022-12-22T19:15:07.685Z,2.95
2022-12-22T19:17:38.054Z,3.50
2022-12-22T19:20:09.623Z,3.35
2022-12-22T19:22:40.306Z,3.15
2022-12-22T19:25:23.404Z,3.17
2022-12-22T19:27:57.410Z,3.28
2022-12-22T19:30:29.807Z,3.55
2022-12-22T19:33:05.695Z,3.08
2022-12-22T19:35:37.239Z,3.72
2022-12-22T19:38:33.665Z,3.38
2022-12-22T19:41:06.513Z,3.45
2022-12-22T19:43:36.964Z,2.67
2022-12-22T19:46:07.957Z,2.72
2022-12-22T19:48:38.334Z,3.30
2022-12-22T19:51:11.965Z,2.72
2022-12-22T19:53:46.803Z,2.83
2022-12-22T19:56:29.838Z,3.67
2022-12-22T19:59:02.217Z,3.28
2022-12-22T20:01:32.650Z,2.50
2022-12-22T20:04:03.079Z,3.40
2022-12-22T20:06:33.819Z,3.63
2022-12-22T20:09:05.269Z,3.67
2022-12-22T20:11:36.211Z,2.70
2022-12-22T20:14:06.590Z,3.30
2022-12-22T20:16:36.857Z,2.97
2022-12-22T20:19:08.005Z,3.60
2022-12-22T20:21:39.582Z,3.50
2022-12-22T20:24:11.551Z,3.25
2022-12-22T20:26:42.283Z,3.83
2022-12-22T20:29:15.064Z,3.28
2022-12-22T20:31:53.266Z,3.15
2022-12-22T20:34:23.750Z,3.53
2022-12-22T20:36:55.219Z,3.35
2022-12-22T20:39:26.197Z,3.92
2022-12-22T20:41:56.874Z,3.72
2022-12-22T20:44:28.959Z,2.95
2022-12-22T20:46:59.734Z,3.65
2022-12-22T20:49:30.086Z,3.30
2022-12-22T20:52:00.296Z,3.70
2022-12-22T20:54:30.736Z,4.25
2022-12-22T20:57:00.951Z,3.85
2022-12-22T20:59:31.704Z,4.25
2022-12-22T21:02:02.201Z,4.43
2022-12-22T21:04:32.628Z,3.70
2022-12-22T21:07:03.297Z,3.63
2022-12-22T21:09:34.166Z,3.85
2022-12-22T21:12:23.430Z,3.83
2022-12-22T21:14:55.348Z,3.60
2022-12-22T21:17:26.319Z,3.70
2022-12-22T21:19:56.572Z,4.38
2022-12-22T21:22:26.875Z,4.10
2022-12-22T21:24:57.154Z,3.30
2022-12-22T21:27:28.306Z,4.53
2022-12-22T21:29:59.576Z,4.15
2022-12-22T21:32:30.210Z,3.80
2022-12-22T21:35:07.797Z,4.35
2022-12-22T21:37:38.593Z,4.72
2022-12-22T21:40:18.522Z,4.07
2022-12-22T21:42:49.520Z,4.60
2022-12-22T21:45:27.101Z,4.75
2022-12-22T21:47:58.191Z,3.83
2022-12-22T21:50:34.093Z,3.45
2022-12-22T21:53:04.746Z,4.25
2022-12-22T21:55:38.455Z,4.18
2022-12-22T21:58:10.470Z,4.25
2022-12-22T22:00:44.980Z,4.15
2022-12-22T22:03:17.796Z,3.85
2022-12-22T22:05:49.754Z,4.35
2022-12-22T22:08:32.585Z,4.28
2022-12-22T22:11:02.942Z,3.72
2022-12-22T22:13:33.230Z,4.07
2022-12-22T22:16:04.060Z,4.97
2022-12-22T22:18:34.413Z,4.60
2022-12-22T22:21:04.763Z,4.85
2022-12-22T22:23:39.938Z,3.47
2022-12-22T22:26:10.920Z,3.58
2022-12-22T22:28:41.309Z,4.18
2022-12-22T22:31:13.129Z,3.33
2022-12-22T22:33:43.500Z,5.03
2022-12-22T22:36:14.209Z,3.83
2022-12-22T22:38:44.951Z,3.70
2022-12-22T22:41:15.635Z,3.45
2022-12-22T22:43:46.634Z,4.00
2022-12-22T22:46:17.353Z,3.92
2022-12-22T22:48:49.585Z,3.03
2022-12-22T22:51:20.374Z,3.92
2022-12-22T22:53:51.174Z,3.17
2022-12-22T22:56:21.812Z,2.78
2022-12-22T22:58:54.471Z,3.00
2022-12-22T23:01:27.037Z,2.58
2022-12-22T23:03:58.085Z,3.13
2022-12-22T23:06:28.911Z,2.67
2022-12-22T23:09:00.034Z,2.97
2022-12-22T23:11:30.679Z,2.60
2022-12-22T23:14:01.838Z,2.90
2022-12-22T23:16:38.146Z,2.83
2022-12-22T23:19:09.309Z,2.88
2022-12-22T23:21:39.974Z,2.83
2022-12-22T23:24:11.170Z,3.10
2022-12-22T23:26:41.964Z,2.65
2022-12-22T23:29:12.580Z,3.03
2022-12-22T23:31:43.068Z,3.28
2022-12-22T23:34:16.433Z,3.00
2022-12-22T23:36:46.765Z,2.40
2022-12-22T23:39:17.410Z,2.83
2022-12-22T23:41:47.747Z,2.22
2022-12-22T23:44:18.308Z,2.20
2022-12-22T23:46:48.702Z,2.05
2022-12-22T23:49:19.080Z,2.17
2022-12-22T23:51:49.725Z,2.72
2022-12-22T23:54:20.583Z,2.00
2022-12-22T23:56:51.307Z,2.67
2022-12-22T23:59:21.783Z,1.80
